Terminal Aerodrome Forecast
Issued by NWS Louisville, KY

Home | Current Version | Previous Version | Text Only | Print | Product List | Glossary On
Versions: 1 2 3 4 5 6 7 8 9 10 11 12 13 14 15 16 17 18
000
FTUS43 KLMK 010500
TAFLEX
TAF
KLEX 010528Z 0106/0206 VRB05KT P6SM SCT020 OVC060
     FM011000 15005KT 4SM -FZRAPL BR SCT022 OVC040
     FM011200 17007KT 5SM -SHRA BR SCT009 BKN015
     FM011500 21009KT 4SM -RA BR BKN009=

USA.gov is the U.S. government's official web portal to all federal, state and local government web resources and services.